createdAt,value
2017-10-11T00:01:28.256Z,2.80
2017-10-11T00:03:55.922Z,1.87
2017-10-11T00:06:23.645Z,1.83
2017-10-11T00:08:51.353Z,1.23
2017-10-11T00:11:19.159Z,1.27
2017-10-11T00:13:46.884Z,1.53
2017-10-11T00:16:14.599Z,2.00
2017-10-11T00:18:42.324Z,2.70
2017-10-11T00:21:10.044Z,2.60
2017-10-11T00:23:37.781Z,1.80
2017-10-11T00:26:05.505Z,1.30
2017-10-11T00:28:33.324Z,2.03
2017-10-11T00:31:01.264Z,2.50
2017-10-11T00:33:29.019Z,1.40
2017-10-11T00:35:56.762Z,1.70
2017-10-11T00:38:24.500Z,1.93
2017-10-11T00:40:52.204Z,1.57
2017-10-11T00:43:19.901Z,1.90
2017-10-11T00:45:47.659Z,1.67
2017-10-11T00:48:15.374Z,1.53
2017-10-11T00:50:43.174Z,1.60
2017-10-11T00:53:10.929Z,1.60
2017-10-11T00:55:38.768Z,1.43
2017-10-11T00:58:06.554Z,2.03
2017-10-11T01:00:34.305Z,1.80
2017-10-11T01:03:02.083Z,2.00
2017-10-11T01:05:29.823Z,2.00
2017-10-11T01:07:57.587Z,1.40
2017-10-11T01:10:25.321Z,1.57
2017-10-11T01:12:53.086Z,1.30
2017-10-11T01:15:20.949Z,1.50
2017-10-11T01:17:48.649Z,2.10
2017-10-11T01:20:16.380Z,2.33
2017-10-11T01:22:44.134Z,1.50
2017-10-11T01:25:11.911Z,1.57
2017-10-11T01:27:39.787Z,0.97
2017-10-11T01:30:07.553Z,1.00
2017-10-11T01:32:35.371Z,1.40
2017-10-11T01:35:03.149Z,1.40
2017-10-11T01:37:30.899Z,3.20
2017-10-11T01:39:58.938Z,3.10
2017-10-11T01:42:26.747Z,1.70
2017-10-11T01:44:54.574Z,2.10
2017-10-11T01:47:22.404Z,1.10
2017-10-11T01:49:50.431Z,2.17
2017-10-11T01:52:18.277Z,1.70
2017-10-11T01:54:46.040Z,1.30
2017-10-11T01:57:13.833Z,1.57
2017-10-11T01:59:41.554Z,0.90
2017-10-11T02:02:09.282Z,1.63
2017-10-11T02:04:37.028Z,1.20
2017-10-11T02:07:04.779Z,1.60
2017-10-11T02:09:32.630Z,0.80
2017-10-11T02:12:00.383Z,2.17
2017-10-11T02:14:28.207Z,1.70
2017-10-11T02:16:55.977Z,2.33
2017-10-11T02:19:23.690Z,4.37
2017-10-11T02:21:51.437Z,5.43
2017-10-11T02:24:19.117Z,2.13
2017-10-11T02:26:46.809Z,1.07
2017-10-11T02:29:14.573Z,1.20
2017-10-11T02:31:42.245Z,0.90
2017-10-11T02:34:09.956Z,1.80
2017-10-11T02:36:37.720Z,1.20
2017-10-11T02:39:05.444Z,1.13
2017-10-11T02:41:33.236Z,1.20
2017-10-11T02:44:00.967Z,1.67
2017-10-11T02:46:28.667Z,1.37
2017-10-11T02:48:56.406Z,1.73
2017-10-11T02:51:24.177Z,2.77
2017-10-11T02:53:51.994Z,1.40
2017-10-11T02:56:19.692Z,0.97
2017-10-11T02:58:47.438Z,1.00
2017-10-11T03:01:15.224Z,1.10
2017-10-11T03:03:42.955Z,1.07
2017-10-11T03:06:10.631Z,1.27
2017-10-11T03:08:38.363Z,1.20
2017-10-11T03:11:06.089Z,1.53
2017-10-11T03:13:33.841Z,1.47
2017-10-11T03:16:01.521Z,1.13
2017-10-11T03:18:29.196Z,1.50
2017-10-11T03:20:56.917Z,1.13
2017-10-11T03:23:24.667Z,1.10
2017-10-11T03:25:52.354Z,1.07
2017-10-11T03:28:20.065Z,0.80
2017-10-11T03:30:47.733Z,1.40
2017-10-11T03:33:15.458Z,1.10
2017-10-11T03:35:43.197Z,1.40
2017-10-11T03:38:10.908Z,1.03
2017-10-11T03:40:38.693Z,0.97
2017-10-11T03:43:06.390Z,1.07
2017-10-11T03:45:34.896Z,0.83
2017-10-11T03:48:02.668Z,1.07
2017-10-11T03:50:30.405Z,1.10
2017-10-11T03:52:58.087Z,0.90
2017-10-11T03:55:25.803Z,0.90
2017-10-11T03:57:53.586Z,1.40
2017-10-11T04:00:21.314Z,1.43
2017-10-11T04:02:49.063Z,1.23
2017-10-11T04:05:16.777Z,1.10
2017-10-11T04:07:44.622Z,1.17
2017-10-11T04:10:12.312Z,1.00
2017-10-11T04:12:40.090Z,1.13
2017-10-11T04:15:07.827Z,1.13
2017-10-11T04:17:35.652Z,1.57
2017-10-11T04:20:03.358Z,1.43
2017-10-11T04:22:31.059Z,0.90
2017-10-11T04:24:58.976Z,1.33
2017-10-11T04:27:26.775Z,1.10
2017-10-11T04:29:54.610Z,0.90
2017-10-11T04:32:22.350Z,1.27
2017-10-11T04:34:50.200Z,1.07
2017-10-11T04:37:18.148Z,1.00
2017-10-11T04:39:45.930Z,0.90
2017-10-11T04:42:13.721Z,0.90
2017-10-11T04:44:41.539Z,1.00
2017-10-11T04:47:10.039Z,1.37
2017-10-11T04:49:38.014Z,0.73
2017-10-11T04:52:06.226Z,0.70
2017-10-11T04:54:34.032Z,0.97
2017-10-11T04:57:01.781Z,0.60
2017-10-11T04:59:29.557Z,0.53
2017-10-11T05:01:57.316Z,0.83
2017-10-11T05:04:25.070Z,0.90
2017-10-11T05:06:52.793Z,0.90
2017-10-11T05:09:20.512Z,0.70
2017-10-11T05:11:48.199Z,1.00
2017-10-11T05:14:17.231Z,1.50
2017-10-11T05:16:44.922Z,1.03
2017-10-11T05:19:12.671Z,1.30
2017-10-11T05:21:40.431Z,1.20
2017-10-11T05:24:08.169Z,1.30
2017-10-11T05:26:36.010Z,0.97
2017-10-11T05:29:04.944Z,0.73
2017-10-11T05:31:32.685Z,1.20
2017-10-11T05:34:00.374Z,1.03
2017-10-11T05:36:28.148Z,1.00
2017-10-11T05:38:55.812Z,1.10
2017-10-11T05:41:23.480Z,1.60
2017-10-11T05:43:51.277Z,1.30
2017-10-11T05:46:18.954Z,0.93
2017-10-11T05:48:46.687Z,1.20
2017-10-11T05:51:14.423Z,1.17
2017-10-11T05:53:42.201Z,1.00
2017-10-11T05:56:09.890Z,0.70
2017-10-11T05:58:37.784Z,0.90
2017-10-11T06:01:05.521Z,1.03
2017-10-11T06:03:33.188Z,1.30
2017-10-11T06:06:00.952Z,1.40
2017-10-11T06:08:28.781Z,1.37
2017-10-11T06:10:56.510Z,1.23
2017-10-11T06:13:24.201Z,1.13
2017-10-11T06:15:51.944Z,1.60
2017-10-11T06:18:19.690Z,1.43
2017-10-11T06:20:47.585Z,1.30
2017-10-11T06:23:15.282Z,1.30
2017-10-11T06:25:42.983Z,1.57
2017-10-11T06:28:10.787Z,1.40
2017-10-11T06:30:38.621Z,2.37
2017-10-11T06:33:06.524Z,3.60
2017-10-11T06:35:34.199Z,3.20
2017-10-11T06:38:01.915Z,3.20
2017-10-11T06:40:29.742Z,3.20
2017-10-11T06:42:57.414Z,2.93
2017-10-11T06:45:25.154Z,2.93
2017-10-11T06:47:52.919Z,2.67
2017-10-11T06:50:20.623Z,4.80
2017-10-11T06:52:48.487Z,2.57
2017-10-11T06:55:16.170Z,2.90
2017-10-11T06:57:43.842Z,2.93
2017-10-11T07:00:11.597Z,2.53
2017-10-11T07:02:39.286Z,2.57
2017-10-11T07:05:07.181Z,2.57
2017-10-11T07:07:35.556Z,3.23
2017-10-11T07:10:03.294Z,3.23
2017-10-11T07:12:31.093Z,2.70
2017-10-11T07:14:58.872Z,2.40
2017-10-11T07:17:26.564Z,3.67
2017-10-11T07:19:54.283Z,2.53
2017-10-11T07:22:21.973Z,3.00
2017-10-11T07:24:49.784Z,3.17
2017-10-11T07:27:17.489Z,2.80
2017-10-11T07:29:45.236Z,1.90
2017-10-11T07:32:13.064Z,3.20
2017-10-11T07:34:40.782Z,3.00
2017-10-11T07:37:08.515Z,3.10
2017-10-11T07:39:36.328Z,3.10
2017-10-11T07:42:04.130Z,3.20
2017-10-11T07:44:31.905Z,2.53
2017-10-11T07:46:59.701Z,2.60
2017-10-11T07:49:27.470Z,2.87
2017-10-11T07:51:55.213Z,2.33
2017-10-11T07:54:22.950Z,3.90
2017-10-11T07:56:50.709Z,3.20
2017-10-11T07:59:18.598Z,1.90
2017-10-11T08:01:46.309Z,2.30
2017-10-11T08:04:14.012Z,1.60
2017-10-11T08:06:41.896Z,1.70
2017-10-11T08:09:09.635Z,1.60
2017-10-11T08:11:37.421Z,2.33
2017-10-11T08:14:05.188Z,1.90
2017-10-11T08:16:32.908Z,1.90
2017-10-11T08:19:00.669Z,2.27
2017-10-11T08:21:28.386Z,2.30
2017-10-11T08:23:56.097Z,2.13
2017-10-11T08:26:23.868Z,1.90
2017-10-11T08:28:51.624Z,2.30
2017-10-11T08:31:19.385Z,1.93
2017-10-11T08:33:47.067Z,1.40
2017-10-11T08:36:15.197Z,1.70
2017-10-11T08:38:42.895Z,2.10
2017-10-11T08:41:10.603Z,2.43
2017-10-11T08:43:38.413Z,2.30
2017-10-11T08:46:06.154Z,1.70
2017-10-11T08:48:34.687Z,3.00
2017-10-11T08:51:02.465Z,1.80
2017-10-11T08:53:30.195Z,1.70
2017-10-11T08:55:57.884Z,1.70
2017-10-11T08:58:25.671Z,2.20
2017-10-11T09:00:53.369Z,2.00
2017-10-11T09:03:21.090Z,2.03
2017-10-11T09:05:48.853Z,1.93
2017-10-11T09:08:16.638Z,1.40
2017-10-11T09:10:44.381Z,1.67
2017-10-11T09:13:12.129Z,1.47
2017-10-11T09:15:39.830Z,2.33
2017-10-11T09:18:07.608Z,1.67
2017-10-11T09:20:35.301Z,1.50
2017-10-11T09:23:02.979Z,1.63
2017-10-11T09:25:30.824Z,1.70
2017-10-11T09:27:58.515Z,2.10
2017-10-11T09:30:26.205Z,1.63
2017-10-11T09:32:54.007Z,1.87
2017-10-11T09:35:21.771Z,1.90
2017-10-11T09:37:49.523Z,2.00
2017-10-11T09:40:17.334Z,2.13
2017-10-11T09:42:45.334Z,1.73
2017-10-11T09:45:13.100Z,1.50
2017-10-11T09:47:40.810Z,2.20
2017-10-11T09:50:08.923Z,2.03
2017-10-11T09:52:36.829Z,1.40
2017-10-11T09:55:04.576Z,1.80
2017-10-11T09:57:32.265Z,1.80
2017-10-11T10:00:00.060Z,1.50
2017-10-11T10:02:27.833Z,1.80
2017-10-11T10:04:55.605Z,1.20
2017-10-11T10:07:23.325Z,1.40
2017-10-11T10:09:51.085Z,1.70
2017-10-11T10:12:18.828Z,1.40
2017-10-11T10:14:46.537Z,1.40
2017-10-11T10:17:15.388Z,1.20
2017-10-11T10:19:43.065Z,1.40
2017-10-11T10:22:10.813Z,1.50
2017-10-11T10:24:38.619Z,1.10
2017-10-11T10:27:06.340Z,0.87
2017-10-11T10:29:34.066Z,1.10
2017-10-11T10:32:01.762Z,1.20
2017-10-11T10:34:29.520Z,1.20
2017-10-11T10:36:57.195Z,1.10
2017-10-11T10:39:25.257Z,1.50
2017-10-11T10:41:52.937Z,1.00
2017-10-11T10:44:20.636Z,1.70
2017-10-11T10:46:48.372Z,1.43
2017-10-11T10:49:16.136Z,1.50
2017-10-11T10:51:43.877Z,1.33
2017-10-11T10:54:11.594Z,1.37
2017-10-11T10:56:39.404Z,1.57
2017-10-11T10:59:07.173Z,1.00
2017-10-11T11:01:34.965Z,1.07
2017-10-11T11:04:02.656Z,1.10
2017-10-11T11:06:30.325Z,1.20
2017-10-11T11:08:58.075Z,1.00
2017-10-11T11:11:25.796Z,0.80
2017-10-11T11:13:53.543Z,1.17
2017-10-11T11:16:21.256Z,0.77
2017-10-11T11:18:49.155Z,0.60
2017-10-11T11:21:16.947Z,0.70
2017-10-11T11:23:44.736Z,0.70
2017-10-11T11:26:13.173Z,0.77
2017-10-11T11:28:40.855Z,1.17
2017-10-11T11:31:08.592Z,1.03
2017-10-11T11:33:36.477Z,0.70
2017-10-11T11:36:04.232Z,1.03
2017-10-11T11:38:32.019Z,0.93
2017-10-11T11:40:59.752Z,1.17
2017-10-11T11:43:27.498Z,1.03
2017-10-11T11:45:55.755Z,1.13
2017-10-11T11:48:24.344Z,1.27
2017-10-11T11:50:54.068Z,1.00
2017-10-11T11:53:22.042Z,0.90
2017-10-11T11:55:49.774Z,0.60
2017-10-11T11:58:17.582Z,1.27
2017-10-11T12:00:45.610Z,1.23
2017-10-11T12:03:14.159Z,0.93
2017-10-11T12:05:41.929Z,0.77
2017-10-11T12:08:10.251Z,0.90
2017-10-11T12:10:39.212Z,1.10
2017-10-11T12:13:07.013Z,1.53
2017-10-11T12:15:34.962Z,0.90
2017-10-11T12:18:02.842Z,0.70
2017-10-11T12:20:32.746Z,1.20
2017-10-11T12:23:01.655Z,0.97
2017-10-11T12:25:29.744Z,1.00
2017-10-11T12:27:57.642Z,1.00
2017-10-11T12:30:25.537Z,0.87
2017-10-11T12:32:54.290Z,0.83
2017-10-11T12:35:22.233Z,0.70
2017-10-11T12:37:50.457Z,1.03
2017-10-11T12:40:18.290Z,0.80
2017-10-11T12:42:46.914Z,0.67
2017-10-11T12:45:14.822Z,0.90
2017-10-11T12:47:43.137Z,0.73
2017-10-11T12:50:10.958Z,0.70
2017-10-11T12:52:39.704Z,0.83
2017-10-11T12:55:07.492Z,0.73
2017-10-11T12:57:35.554Z,0.73
2017-10-11T13:00:03.330Z,0.90
2017-10-11T13:02:31.113Z,1.07
2017-10-11T13:04:58.941Z,0.70
2017-10-11T13:07:26.795Z,0.60
2017-10-11T13:09:54.569Z,0.70
2017-10-11T13:12:22.489Z,0.83
2017-10-11T13:14:51.605Z,0.80
2017-10-11T13:17:19.505Z,0.70
2017-10-11T13:19:47.232Z,0.77
2017-10-11T13:22:15.076Z,1.00
2017-10-11T13:24:43.603Z,0.70
2017-10-11T13:27:11.399Z,0.63
2017-10-11T13:29:39.169Z,1.87
2017-10-11T13:32:06.871Z,0.77
2017-10-11T13:34:35.734Z,0.63
2017-10-11T13:37:03.530Z,0.60
2017-10-11T13:39:31.315Z,0.57
2017-10-11T13:41:59.016Z,1.03
2017-10-11T13:44:26.870Z,0.40
2017-10-11T13:46:54.596Z,0.80
2017-10-11T13:49:22.364Z,0.90
2017-10-11T13:51:50.737Z,1.20
2017-10-11T13:54:18.532Z,0.77
2017-10-11T13:56:46.327Z,1.93
2017-10-11T13:59:14.277Z,0.90
2017-10-11T14:01:42.131Z,1.53
2017-10-11T14:04:09.928Z,0.53
2017-10-11T14:06:37.668Z,0.97
2017-10-11T14:09:05.555Z,2.20
2017-10-11T14:11:33.384Z,1.20
2017-10-11T14:14:01.101Z,0.73
2017-10-11T14:16:28.816Z,1.60
2017-10-11T14:18:56.726Z,1.73
2017-10-11T14:21:25.024Z,0.77
2017-10-11T14:23:52.880Z,0.67
2017-10-11T14:26:20.747Z,1.10
2017-10-11T14:31:22.614Z,1.73
2017-10-11T14:33:50.423Z,0.83
2017-10-11T14:36:18.454Z,0.50
2017-10-11T14:38:47.221Z,0.60
2017-10-11T14:41:14.931Z,1.17
2017-10-11T14:43:42.776Z,0.87
2017-10-11T14:46:10.510Z,0.90
2017-10-11T14:48:38.368Z,0.67
2017-10-11T14:51:06.877Z,0.80
2017-10-11T14:53:34.657Z,0.93
2017-10-11T14:56:02.405Z,0.83
2017-10-11T14:58:30.187Z,0.87
2017-10-11T15:00:57.967Z,0.90
2017-10-11T15:03:25.783Z,0.73
2017-10-11T15:05:53.556Z,1.43
2017-10-11T15:08:21.282Z,1.23
2017-10-11T15:10:49.021Z,0.90
2017-10-11T15:13:17.876Z,0.63
2017-10-11T15:15:45.708Z,0.90
2017-10-11T15:18:13.429Z,1.03
2017-10-11T15:20:41.218Z,1.40
2017-10-11T15:23:08.937Z,1.57
2017-10-11T15:25:36.928Z,0.80
2017-10-11T15:28:04.739Z,1.77
2017-10-11T15:30:32.449Z,3.10
2017-10-11T15:33:00.188Z,6.00
2017-10-11T15:35:28.015Z,13.57
2017-10-11T15:37:55.735Z,8.80
2017-10-11T15:40:23.564Z,13.90
2017-10-11T15:42:51.505Z,10.20
2017-10-11T15:45:19.239Z,7.03
2017-10-11T15:47:47.061Z,11.53
2017-10-11T15:50:14.822Z,9.37
2017-10-11T15:52:42.561Z,8.67
2017-10-11T15:55:10.352Z,14.43
2017-10-11T15:57:38.071Z,11.77
2017-10-11T16:00:05.982Z,6.70
2017-10-11T16:02:33.824Z,8.00
2017-10-11T16:05:02.427Z,16.00
2017-10-11T16:07:30.362Z,17.97
2017-10-11T16:09:58.158Z,9.97
2017-10-11T16:12:26.363Z,10.40
2017-10-11T16:14:54.131Z,3.97
2017-10-11T16:17:21.983Z,3.40
2017-10-11T16:19:49.734Z,2.80
2017-10-11T16:22:17.547Z,16.87
2017-10-11T16:24:45.428Z,10.17
2017-10-11T16:27:13.192Z,9.90
2017-10-11T16:29:41.073Z,9.60
2017-10-11T16:32:09.236Z,8.27
2017-10-11T16:34:37.079Z,5.13
2017-10-11T16:37:05.834Z,2.60
2017-10-11T16:39:33.715Z,3.10
2017-10-11T16:42:01.484Z,3.43
2017-10-11T16:44:29.250Z,3.50
2017-10-11T16:46:57.115Z,4.20
2017-10-11T16:49:25.027Z,3.97
2017-10-11T16:51:54.029Z,3.07
2017-10-11T16:54:21.801Z,2.40
2017-10-11T16:56:50.372Z,3.20
2017-10-11T16:59:18.229Z,2.80
2017-10-11T17:01:46.237Z,2.10
2017-10-11T17:04:13.983Z,3.97
2017-10-11T17:06:41.834Z,3.60
2017-10-11T17:09:09.659Z,6.77
2017-10-11T17:11:37.558Z,11.83
2017-10-11T17:14:05.364Z,13.07
2017-10-11T17:16:33.128Z,7.20
2017-10-11T17:19:01.589Z,7.00
2017-10-11T17:21:30.645Z,4.40
2017-10-11T17:23:58.586Z,4.60
2017-10-11T17:26:27.240Z,2.33
2017-10-11T17:28:55.031Z,2.20
2017-10-11T17:31:23.132Z,2.00
2017-10-11T17:33:50.942Z,1.10
2017-10-11T17:36:19.344Z,1.23
2017-10-11T17:38:47.285Z,1.20
2017-10-11T17:41:15.087Z,1.20
2017-10-11T17:43:42.936Z,2.17
2017-10-11T17:46:10.687Z,3.20
2017-10-11T17:48:40.130Z,1.67
2017-10-11T17:51:08.022Z,1.50
2017-10-11T17:53:36.647Z,1.80
2017-10-11T17:56:05.543Z,1.87
2017-10-11T17:58:33.591Z,1.73
2017-10-11T18:01:02.186Z,2.57
2017-10-11T18:03:30.149Z,3.07
2017-10-11T18:05:57.948Z,2.30
2017-10-11T18:08:25.736Z,2.53
2017-10-11T18:10:54.661Z,1.63
2017-10-11T18:13:22.516Z,1.00
2017-10-11T18:15:50.362Z,1.27
2017-10-11T18:18:18.234Z,1.03
2017-10-11T18:20:46.104Z,1.40
2017-10-11T18:23:13.891Z,1.30
2017-10-11T18:25:41.699Z,1.30
2017-10-11T18:28:09.714Z,1.73
2017-10-11T18:30:37.541Z,1.30
2017-10-11T18:33:05.486Z,1.70
2017-10-11T18:35:33.472Z,1.60
2017-10-11T18:38:02.669Z,1.90
2017-10-11T18:40:30.517Z,2.03
2017-10-11T18:42:59.301Z,2.70
2017-10-11T18:45:27.036Z,2.60
2017-10-11T18:47:54.875Z,2.10
2017-10-11T18:50:22.789Z,1.20
2017-10-11T18:52:52.683Z,1.10
2017-10-11T18:55:20.727Z,1.77
2017-10-11T18:57:49.659Z,1.67
2017-10-11T19:00:19.295Z,1.77
2017-10-11T19:02:49.022Z,1.60
2017-10-11T19:05:16.822Z,1.27
2017-10-11T19:07:45.522Z,1.10
2017-10-11T19:10:13.412Z,1.03
2017-10-11T19:12:41.265Z,1.23
2017-10-11T19:15:09.165Z,1.33
2017-10-11T19:17:36.922Z,1.13
2017-10-11T19:20:04.758Z,1.30
2017-10-11T19:22:32.484Z,1.10
2017-10-11T19:25:00.341Z,1.40
2017-10-11T19:27:28.166Z,1.20
2017-10-11T19:29:56.401Z,1.90
2017-10-11T19:32:24.134Z,0.90
2017-10-11T19:34:52.056Z,1.20
2017-10-11T19:37:19.903Z,1.30
2017-10-11T19:39:48.670Z,0.97
2017-10-11T19:42:18.278Z,1.43
2017-10-11T19:44:47.889Z,1.27
2017-10-11T19:47:15.652Z,0.83
2017-10-11T19:49:43.485Z,1.03
2017-10-11T19:52:11.392Z,1.13
2017-10-11T19:54:39.392Z,1.37
2017-10-11T19:57:07.209Z,1.40
2017-10-11T19:59:36.108Z,1.00
2017-10-11T20:02:03.981Z,1.13
2017-10-11T20:04:31.868Z,0.97
2017-10-11T20:06:59.818Z,1.63
2017-10-11T20:09:27.642Z,1.43
2017-10-11T20:11:55.378Z,1.10
2017-10-11T20:14:23.179Z,1.37
2017-10-11T20:16:51.021Z,1.30
2017-10-11T20:19:18.828Z,1.03
2017-10-11T20:21:46.861Z,1.33
2017-10-11T20:24:14.664Z,1.40
2017-10-11T20:26:42.516Z,0.83
2017-10-11T20:29:10.441Z,1.23
2017-10-11T20:31:39.344Z,1.33
2017-10-11T20:34:07.163Z,0.90
2017-10-11T20:36:35.065Z,1.83
2017-10-11T20:39:02.807Z,1.70
2017-10-11T20:41:30.506Z,1.30
2017-10-11T20:43:58.360Z,2.20
2017-10-11T20:46:26.140Z,1.40
2017-10-11T20:48:53.912Z,1.70
2017-10-11T20:51:21.737Z,2.90
2017-10-11T20:53:49.546Z,2.77
2017-10-11T20:56:17.315Z,1.20
2017-10-11T20:58:45.226Z,1.93
2017-10-11T21:01:13.472Z,2.00
2017-10-11T21:03:41.234Z,2.43
2017-10-11T21:06:09.071Z,1.17
2017-10-11T21:08:36.812Z,1.30
2017-10-11T21:11:04.635Z,2.07
2017-10-11T21:13:32.442Z,2.20
2017-10-11T21:16:00.904Z,1.47
2017-10-11T21:18:28.766Z,1.37
2017-10-11T21:20:56.581Z,1.43
2017-10-11T21:23:24.406Z,1.53
2017-10-11T21:25:52.124Z,1.37
2017-10-11T21:28:19.947Z,1.20
2017-10-11T21:30:48.738Z,1.67
2017-10-11T21:33:16.564Z,2.20
2017-10-11T21:35:44.351Z,2.03
2017-10-11T21:38:12.194Z,1.77
2017-10-11T21:40:40.004Z,1.27
2017-10-11T21:43:07.824Z,1.60
2017-10-11T21:45:35.650Z,1.80
2017-10-11T21:48:03.440Z,1.90
2017-10-11T21:50:31.227Z,1.37
2017-10-11T21:52:59.044Z,1.40
2017-10-11T21:55:26.726Z,0.97
2017-10-11T21:57:54.513Z,1.03
2017-10-11T22:00:22.337Z,1.40
2017-10-11T22:02:50.086Z,1.53
2017-10-11T22:05:17.908Z,1.83
2017-10-11T22:07:45.668Z,1.87
2017-10-11T22:10:13.443Z,1.60
2017-10-11T22:12:41.395Z,1.90
2017-10-11T22:15:09.092Z,2.03
2017-10-11T22:17:36.825Z,1.37
2017-10-11T22:20:04.632Z,1.70
2017-10-11T22:22:33.617Z,1.97
2017-10-11T22:25:01.314Z,2.23
2017-10-11T22:27:29.072Z,1.80
2017-10-11T22:29:56.850Z,2.10
2017-10-11T22:32:25.368Z,2.23
2017-10-11T22:34:53.225Z,2.13
2017-10-11T22:37:21.112Z,6.17
2017-10-11T22:39:48.852Z,7.17
2017-10-11T22:42:16.571Z,5.53
2017-10-11T22:44:44.357Z,6.80
2017-10-11T22:47:12.158Z,3.70
2017-10-11T22:49:39.950Z,2.43
2017-10-11T22:52:07.734Z,2.80
2017-10-11T22:54:36.465Z,1.47
2017-10-11T22:57:04.200Z,2.23
2017-10-11T22:59:31.969Z,1.83
2017-10-11T23:01:59.738Z,2.00
2017-10-11T23:04:27.481Z,1.23
2017-10-11T23:06:55.229Z,1.50
2017-10-11T23:09:23.016Z,1.70
2017-10-11T23:11:50.722Z,1.07
2017-10-11T23:14:18.482Z,1.80
2017-10-11T23:16:46.428Z,1.57
2017-10-11T23:19:14.147Z,1.90
2017-10-11T23:21:41.873Z,2.10
2017-10-11T23:24:09.599Z,1.90
2017-10-11T23:26:37.336Z,1.40
2017-10-11T23:29:05.087Z,2.40
2017-10-11T23:31:32.854Z,1.60
2017-10-11T23:34:00.651Z,1.13
2017-10-11T23:36:28.324Z,1.23
2017-10-11T23:38:56.075Z,1.40
2017-10-11T23:41:23.742Z,1.60
2017-10-11T23:43:51.470Z,1.33
2017-10-11T23:46:19.369Z,1.03
2017-10-11T23:48:47.068Z,1.37
2017-10-11T23:51:14.796Z,1.67
2017-10-11T23:53:42.535Z,1.47
2017-10-11T23:56:10.223Z,1.90
2017-10-11T23:58:37.952Z,2.37
